Wylde Swan — PIWS — position and weather

sailwx.info

Track history (hours):
 
Tides and Currents Weather Stations Pressure Air Temp Water Temp Dewpoint Dewpoint Depression Visibility Wind Speed Wind Dir Waves Ship Positions

Wylde Swan

Last reported at 2020-Jul-09 03:00 UTC. Time now 2020-Jul-09 04:29 UTC.
Position N 59°03' E 005°35'.

Length 45 m; draft 3.4 m.

Type: Sailing vessel. MMSI: 244074000.

Date/timePositionNaut miles runAvg speedWind from/ knotsBaromVisibWave heightAir tempDewpointWater temp
2020-Jul-09 03:00N 59°03' E 005°35'21 4.2
2020-Jul-08 22:00N 58°42' E 005°24'7 4.7
2020-Jul-08 20:30N 58°37' E 005°33'12 3.9
2020-Jul-08 17:30N 58°28' E 005°48'2 4.2
2020-Jul-08 17:00N 58°27' E 005°51'5 3.4
2020-Jul-08 15:30N 58°22' E 005°56'4 2.6
2020-Jul-08 14:00N 58°21' E 006°04'1 2.7
2020-Jul-08 13:30N 58°21' E 006°05'2 3.1
2020-Jul-08 13:00N 58°19' E 006°07'1 2.4
2020-Jul-08 12:30N 58°19' E 006°09'4 2.7
2020-Jul-08 11:00N 58°15' E 006°12'20 3.7
2020-Jul-08 05:30N 58°02' E 006°42'11 4.3
2020-Jul-08 03:00N 57°57' E 006°60'17 4.2
2020-Jul-07 23:00N 57°57' E 007°32'4 4.1
2020-Jul-07 22:00N 57°57' E 007°39'7 4.5
2020-Jul-07 20:30N 58°00' E 007°51'9 4.6
2020-Jul-07 18:30N 58°08' E 007°59'0 0.1
2020-Jul-07 15:59N 58°09' E 007°60'0 0.0
2020-Jul-07 14:59N 58°09' E 007°60'0 0.0
2020-Jul-07 13:59N 58°09' E 007°60'0 0.0
2020-Jul-07 12:59N 58°09' E 007°60'0 0.0
2020-Jul-07 11:29N 58°09' E 007°60'0 0.0
2020-Jul-07 10:59N 58°09' E 007°60'0 0.0
2020-Jul-07 07:29N 58°09' E 007°60'0 0.0
2020-Jul-07 05:29N 58°09' E 007°60'0 0.0
2020-Jul-07 04:59N 58°09' E 007°60'0 0.0
2020-Jul-07 03:29N 58°09' E 007°60'0 0.0
2020-Jul-07 02:59N 58°09' E 007°60'0 0.0
2020-Jul-06 23:59N 58°09' E 007°60'0 0.0
2020-Jul-06 22:29N 58°09' E 007°60'0 0.0
2020-Jul-06 18:59N 58°09' E 007°60'0 0.0
2020-Jul-06 18:29N 58°09' E 007°60'0 0.0
2020-Jul-06 17:29N 58°09' E 007°60'0 0.0
2020-Jul-06 16:59N 58°09' E 007°60'0 0.0
2020-Jul-06 11:59N 58°09' E 007°60'0 0.0
2020-Jul-06 10:59N 58°09' E 007°60'0 0.0
2020-Jul-06 09:59N 58°09' E 007°60'0 0.0
2020-Jul-06 09:29N 58°09' E 007°60'0 0.0
2020-Jul-06 08:29N 58°09' E 007°60'0 0.0
2020-Jul-06 07:59N 58°09' E 007°60'0 0.0
2020-Jul-06 04:29N 58°09' E 007°60'0 0.0
2020-Jul-06 02:59N 58°09' E 007°60'0 0.0
2020-Jul-06 02:29N 58°09' E 007°60'0 0.0
2020-Jul-06 01:29N 58°09' E 007°60'0 0.0
2020-Jul-05 21:59N 58°09' E 007°60'0 0.0
2020-Jul-05 19:59N 58°09' E 007°60'0 0.0
2020-Jul-05 15:59N 58°09' E 007°60'0 0.0
2020-Jul-05 15:29N 58°09' E 007°60'0 0.0
2020-Jul-05 12:29N 58°09' E 007°60'0 0.0
2020-Jul-05 10:29N 58°09' E 007°60'0 0.0
2020-Jul-05 05:29N 58°09' E 007°60'0 0.0
2020-Jul-05 03:59N 58°09' E 007°60'0 0.0
2020-Jul-05 02:59N 58°09' E 007°60'0 0.0
2020-Jul-05 01:59N 58°09' E 007°60'0 0.0
2020-Jul-04 22:29N 58°09' E 007°60'0 0.0
2020-Jul-04 19:59N 58°09' E 007°60'0 0.0
2020-Jul-04 19:29N 58°09' E 007°60'0 0.0
2020-Jul-04 18:29N 58°09' E 007°60'2 0.4
2020-Jul-04 12:30N 58°07' E 008°01'5 4.8
2020-Jul-04 11:30N 58°02' E 007°58'7 0.8
2020-Jul-04 02:58N 58°09' E 007°60'0 0.0
2020-Jul-04 01:58N 58°09' E 007°60'0 0.0
2020-Jul-03 21:28N 58°09' E 007°60'0 0.0
2020-Jul-03 20:58N 58°09' E 007°60'0 0.0
2020-Jul-03 17:58N 58°09' E 007°60'0 0.0
2020-Jul-03 16:28N 58°09' E 007°60'0 0.0
2020-Jul-03 15:58N 58°09' E 007°60'0 0.0
2020-Jul-03 15:28N 58°09' E 007°60'0 0.0
2020-Jul-03 14:28N 58°09' E 007°60'0 0.0
2020-Jul-03 13:58N 58°09' E 007°60'0 0.0
2020-Jul-03 13:28N 58°09' E 007°60'0 0.0
2020-Jul-03 10:28N 58°09' E 007°60'0 0.0
2020-Jul-03 09:58N 58°09' E 007°60'0 0.0
2020-Jul-03 09:28N 58°09' E 007°60'0 0.0
2020-Jul-03 08:58N 58°09' E 007°60'0 0.0
2020-Jul-03 08:28N 58°09' E 007°60'0 0.0
2020-Jul-03 06:28N 58°09' E 007°60'0 0.0
2020-Jul-03 03:58N 58°09' E 007°60'0 0.0
2020-Jul-03 02:58N 58°09' E 007°60'0 0.0
2020-Jul-03 02:28N 58°09' E 007°60'0 0.0
2020-Jul-02 20:28N 58°09' E 007°60'0 0.0
2020-Jul-02 19:31N 58°09' E 007°60'0 0.0
2020-Jul-02 18:30N 58°09' E 007°60'9 3.8
2020-Jul-02 16:00N 57°59' E 007°59'11 7.1
2020-Jul-02 14:30N 57°53' E 007°42'20 6.7
2020-Jul-02 11:31N 57°55' E 007°04'3 7.0
2020-Jul-02 11:00N 57°54' E 006°58'4 7.2
2020-Jul-02 10:30N 57°54' E 006°51'7 7.0
2020-Jul-02 09:30N 57°53' E 006°38'3 5.7
2020-Jul-02 09:00N 57°56' E 006°36'15 6.0
2020-Jul-02 06:29N 58°11' E 006°36'7 2.7
2020-Jul-02 04:00N 58°18' E 006°39'0 0.0
2020-Jul-02 03:30N 58°18' E 006°39'0 0.0
2020-Jul-02 02:30N 58°18' E 006°39'0 0.0
2020-Jul-02 01:30N 58°18' E 006°39'0 0.0
2020-Jul-01 23:30N 58°18' E 006°39'0 0.0
2020-Jul-01 18:30N 58°18' E 006°39'0 0.0
2020-Jul-01 16:00N 58°18' E 006°39'0 0.0
2020-Jul-01 13:30N 58°18' E 006°39'4 0.5
2020-Jul-01 05:30N 58°14' E 006°37'6 4.1
2020-Jul-01 04:00N 58°15' E 006°26'6 4.3
2020-Jul-01 02:29N 58°13' E 006°14'9 3.7
2020-Jul-01 00:00N 58°12' E 005°57'9 3.5
2020-Jun-30 21:30N 58°10' E 005°41'16 5.5
2020-Jun-30 18:30N 58°04' E 005°12'3 5.7
2020-Jun-30 18:00N 58°03' E 005°06'3 6.1
2020-Jun-30 17:30N 58°02' E 005°01'6 6.1
2020-Jun-30 16:30N 57°59' E 004°52'6 6.3
2020-Jun-30 15:30N 57°54' E 004°44'6 6.1
2020-Jun-30 14:30N 57°49' E 004°38'6 5.8
2020-Jun-30 13:30N 57°44' E 004°33'  
Track history (hours):
 
Tides and Currents Weather Stations Pressure Air Temp Water Temp Dewpoint Dewpoint Depression Visibility Wind Speed Wind Dir Waves Ship Positions

Wylde Swan

Last reported at 2020-Jul-09 03:00 UTC. Time now 2020-Jul-09 04:29 UTC.
Position N 59°03' E 005°35'.

Length 45 m; draft 3.4 m.

Type: Sailing vessel. MMSI: 244074000.

Date/timePositionNaut miles runAvg speedWind from/ knotsBaromVisibWave heightAir tempDewpointWater temp
2020-Jul-09 03:00N 59°03' E 005°35'21 4.2
2020-Jul-08 22:00N 58°42' E 005°24'7 4.7
2020-Jul-08 20:30N 58°37' E 005°33'12 3.9
2020-Jul-08 17:30N 58°28' E 005°48'2 4.2
2020-Jul-08 17:00N 58°27' E 005°51'5 3.4
2020-Jul-08 15:30N 58°22' E 005°56'4 2.6
2020-Jul-08 14:00N 58°21' E 006°04'1 2.7
2020-Jul-08 13:30N 58°21' E 006°05'2 3.1
2020-Jul-08 13:00N 58°19' E 006°07'1 2.4
2020-Jul-08 12:30N 58°19' E 006°09'4 2.7
2020-Jul-08 11:00N 58°15' E 006°12'20 3.7
2020-Jul-08 05:30N 58°02' E 006°42'11 4.3
2020-Jul-08 03:00N 57°57' E 006°60'17 4.2
2020-Jul-07 23:00N 57°57' E 007°32'4 4.1
2020-Jul-07 22:00N 57°57' E 007°39'7 4.5
2020-Jul-07 20:30N 58°00' E 007°51'9 4.6
2020-Jul-07 18:30N 58°08' E 007°59'0 0.1
2020-Jul-07 15:59N 58°09' E 007°60'0 0.0
2020-Jul-07 14:59N 58°09' E 007°60'0 0.0
2020-Jul-07 13:59N 58°09' E 007°60'0 0.0
2020-Jul-07 12:59N 58°09' E 007°60'0 0.0
2020-Jul-07 11:29N 58°09' E 007°60'0 0.0
2020-Jul-07 10:59N 58°09' E 007°60'0 0.0
2020-Jul-07 07:29N 58°09' E 007°60'0 0.0
2020-Jul-07 05:29N 58°09' E 007°60'0 0.0
2020-Jul-07 04:59N 58°09' E 007°60'0 0.0
2020-Jul-07 03:29N 58°09' E 007°60'0 0.0
2020-Jul-07 02:59N 58°09' E 007°60'0 0.0
2020-Jul-06 23:59N 58°09' E 007°60'0 0.0
2020-Jul-06 22:29N 58°09' E 007°60'0 0.0
2020-Jul-06 18:59N 58°09' E 007°60'0 0.0
2020-Jul-06 18:29N 58°09' E 007°60'0 0.0
2020-Jul-06 17:29N 58°09' E 007°60'0 0.0
2020-Jul-06 16:59N 58°09' E 007°60'0 0.0
2020-Jul-06 11:59N 58°09' E 007°60'0 0.0
2020-Jul-06 10:59N 58°09' E 007°60'0 0.0
2020-Jul-06 09:59N 58°09' E 007°60'0 0.0
2020-Jul-06 09:29N 58°09' E 007°60'0 0.0
2020-Jul-06 08:29N 58°09' E 007°60'0 0.0
2020-Jul-06 07:59N 58°09' E 007°60'0 0.0
2020-Jul-06 04:29N 58°09' E 007°60'0 0.0
2020-Jul-06 02:59N 58°09' E 007°60'0 0.0
2020-Jul-06 02:29N 58°09' E 007°60'0 0.0
2020-Jul-06 01:29N 58°09' E 007°60'0 0.0
2020-Jul-05 21:59N 58°09' E 007°60'0 0.0
2020-Jul-05 19:59N 58°09' E 007°60'0 0.0
2020-Jul-05 15:59N 58°09' E 007°60'0 0.0
2020-Jul-05 15:29N 58°09' E 007°60'0 0.0
2020-Jul-05 12:29N 58°09' E 007°60'0 0.0
2020-Jul-05 10:29N 58°09' E 007°60'0 0.0
2020-Jul-05 05:29N 58°09' E 007°60'0 0.0
2020-Jul-05 03:59N 58°09' E 007°60'0 0.0
2020-Jul-05 02:59N 58°09' E 007°60'0 0.0
2020-Jul-05 01:59N 58°09' E 007°60'0 0.0
2020-Jul-04 22:29N 58°09' E 007°60'0 0.0
2020-Jul-04 19:59N 58°09' E 007°60'0 0.0
2020-Jul-04 19:29N 58°09' E 007°60'0 0.0
2020-Jul-04 18:29N 58°09' E 007°60'2 0.4
2020-Jul-04 12:30N 58°07' E 008°01'5 4.8
2020-Jul-04 11:30N 58°02' E 007°58'7 0.8
2020-Jul-04 02:58N 58°09' E 007°60'0 0.0
2020-Jul-04 01:58N 58°09' E 007°60'0 0.0
2020-Jul-03 21:28N 58°09' E 007°60'0 0.0
2020-Jul-03 20:58N 58°09' E 007°60'0 0.0
2020-Jul-03 17:58N 58°09' E 007°60'0 0.0
2020-Jul-03 16:28N 58°09' E 007°60'0 0.0
2020-Jul-03 15:58N 58°09' E 007°60'0 0.0
2020-Jul-03 15:28N 58°09' E 007°60'0 0.0
2020-Jul-03 14:28N 58°09' E 007°60'0 0.0
2020-Jul-03 13:58N 58°09' E 007°60'0 0.0
2020-Jul-03 13:28N 58°09' E 007°60'0 0.0
2020-Jul-03 10:28N 58°09' E 007°60'0 0.0
2020-Jul-03 09:58N 58°09' E 007°60'0 0.0
2020-Jul-03 09:28N 58°09' E 007°60'0 0.0
2020-Jul-03 08:58N 58°09' E 007°60'0 0.0
2020-Jul-03 08:28N 58°09' E 007°60'0 0.0
2020-Jul-03 06:28N 58°09' E 007°60'0 0.0
2020-Jul-03 03:58N 58°09' E 007°60'0 0.0
2020-Jul-03 02:58N 58°09' E 007°60'0 0.0
2020-Jul-03 02:28N 58°09' E 007°60'0 0.0
2020-Jul-02 20:28N 58°09' E 007°60'0 0.0
2020-Jul-02 19:31N 58°09' E 007°60'0 0.0
2020-Jul-02 18:30N 58°09' E 007°60'9 3.8
2020-Jul-02 16:00N 57°59' E 007°59'11 7.1
2020-Jul-02 14:30N 57°53' E 007°42'20 6.7
2020-Jul-02 11:31N 57°55' E 007°04'3 7.0
2020-Jul-02 11:00N 57°54' E 006°58'4 7.2
2020-Jul-02 10:30N 57°54' E 006°51'7 7.0
2020-Jul-02 09:30N 57°53' E 006°38'3 5.7
2020-Jul-02 09:00N 57°56' E 006°36'15 6.0
2020-Jul-02 06:29N 58°11' E 006°36'7 2.7
2020-Jul-02 04:00N 58°18' E 006°39'0 0.0
2020-Jul-02 03:30N 58°18' E 006°39'0 0.0
2020-Jul-02 02:30N 58°18' E 006°39'0 0.0
2020-Jul-02 01:30N 58°18' E 006°39'0 0.0
2020-Jul-01 23:30N 58°18' E 006°39'0 0.0
2020-Jul-01 18:30N 58°18' E 006°39'0 0.0
2020-Jul-01 16:00N 58°18' E 006°39'0 0.0
2020-Jul-01 13:30N 58°18' E 006°39'4 0.5
2020-Jul-01 05:30N 58°14' E 006°37'6 4.1
2020-Jul-01 04:00N 58°15' E 006°26'6 4.3
2020-Jul-01 02:29N 58°13' E 006°14'9 3.7
2020-Jul-01 00:00N 58°12' E 005°57'9 3.5
2020-Jun-30 21:30N 58°10' E 005°41'16 5.5
2020-Jun-30 18:30N 58°04' E 005°12'3 5.7
2020-Jun-30 18:00N 58°03' E 005°06'3 6.1
2020-Jun-30 17:30N 58°02' E 005°01'6 6.1
2020-Jun-30 16:30N 57°59' E 004°52'6 6.3
2020-Jun-30 15:30N 57°54' E 004°44'6 6.1
2020-Jun-30 14:30N 57°49' E 004°38'6 5.8
2020-Jun-30 13:30N 57°44' E 004°33'  

Dump ship's entire track history